sensor_id;sensor_type;location;lat;lon;timestamp;temperature;humidity
76211;DHT22;65003;49.518;11.280;2023-05-18T00:02:24;9.40;70.40
76211;DHT22;65003;49.518;11.280;2023-05-18T00:04:51;9.30;70.70
76211;DHT22;65003;49.518;11.280;2023-05-18T00:07:18;9.10;71.10
76211;DHT22;65003;49.518;11.280;2023-05-18T00:09:44;9.00;72.60
76211;DHT22;65003;49.518;11.280;2023-05-18T00:12:11;9.00;72.50
76211;DHT22;65003;49.518;11.280;2023-05-18T00:14:38;9.00;72.30
76211;DHT22;65003;49.518;11.280;2023-05-18T00:17:04;9.00;73.40
76211;DHT22;65003;49.518;11.280;2023-05-18T00:19:31;9.00;72.60
76211;DHT22;65003;49.518;11.280;2023-05-18T00:21:57;9.00;72.40
76211;DHT22;65003;49.518;11.280;2023-05-18T00:24:24;9.00;72.50
76211;DHT22;65003;49.518;11.280;2023-05-18T00:26:50;9.00;72.60
76211;DHT22;65003;49.518;11.280;2023-05-18T00:29:17;9.00;72.60
76211;DHT22;65003;49.518;11.280;2023-05-18T00:31:44;9.00;72.70
76211;DHT22;65003;49.518;11.280;2023-05-18T00:34:11;9.00;72.70
76211;DHT22;65003;49.518;11.280;2023-05-18T00:36:37;9.00;72.80
76211;DHT22;65003;49.518;11.280;2023-05-18T00:39:04;9.00;72.80
76211;DHT22;65003;49.518;11.280;2023-05-18T00:41:31;9.00;72.80
76211;DHT22;65003;49.518;11.280;2023-05-18T00:43:57;8.90;74.00
76211;DHT22;65003;49.518;11.280;2023-05-18T00:46:24;8.80;73.30
76211;DHT22;65003;49.518;11.280;2023-05-18T00:48:50;8.80;73.10
76211;DHT22;65003;49.518;11.280;2023-05-18T00:51:17;8.90;73.20
76211;DHT22;65003;49.518;11.280;2023-05-18T00:53:44;8.80;73.20
76211;DHT22;65003;49.518;11.280;2023-05-18T00:56:10;8.80;73.00
76211;DHT22;65003;49.518;11.280;2023-05-18T00:58:38;8.80;73.10
76211;DHT22;65003;49.518;11.280;2023-05-18T01:01:04;8.80;73.10
76211;DHT22;65003;49.518;11.280;2023-05-18T01:03:32;8.80;73.40
76211;DHT22;65003;49.518;11.280;2023-05-18T01:05:58;8.80;73.80
76211;DHT22;65003;49.518;11.280;2023-05-18T01:08:26;8.70;74.70
76211;DHT22;65003;49.518;11.280;2023-05-18T01:10:54;8.70;74.30
76211;DHT22;65003;49.518;11.280;2023-05-18T01:13:21;8.60;74.50
76211;DHT22;65003;49.518;11.280;2023-05-18T01:15:46;8.70;74.40
76211;DHT22;65003;49.518;11.280;2023-05-18T01:18:22;8.60;74.90
76211;DHT22;65003;49.518;11.280;2023-05-18T01:20:46;8.60;74.90
76211;DHT22;65003;49.518;11.280;2023-05-18T01:23:30;8.50;75.10
76211;DHT22;65003;49.518;11.280;2023-05-18T01:26:08;8.50;75.40
76211;DHT22;65003;49.518;11.280;2023-05-18T01:28:32;8.50;75.40
76211;DHT22;65003;49.518;11.280;2023-05-18T01:30:58;8.50;75.70
76211;DHT22;65003;49.518;11.280;2023-05-18T01:33:24;8.40;75.70
76211;DHT22;65003;49.518;11.280;2023-05-18T01:35:52;8.40;76.10
76211;DHT22;65003;49.518;11.280;2023-05-18T01:38:21;8.40;75.80
76211;DHT22;65003;49.518;11.280;2023-05-18T01:41:10;8.30;76.30
76211;DHT22;65003;49.518;11.280;2023-05-18T01:43:34;8.20;76.50
76211;DHT22;65003;49.518;11.280;2023-05-18T01:46:51;8.20;76.40
76211;DHT22;65003;49.518;11.280;2023-05-18T01:48:59;8.20;76.60
76211;DHT22;65003;49.518;11.280;2023-05-18T01:51:24;8.20;76.70
76211;DHT22;65003;49.518;11.280;2023-05-18T01:53:51;8.20;76.60
76211;DHT22;65003;49.518;11.280;2023-05-18T01:56:16;8.20;76.60
76211;DHT22;65003;49.518;11.280;2023-05-18T01:58:43;8.20;76.60
76211;DHT22;65003;49.518;11.280;2023-05-18T02:01:09;8.20;76.80
76211;DHT22;65003;49.518;11.280;2023-05-18T02:03:36;8.20;76.70
76211;DHT22;65003;49.518;11.280;2023-05-18T02:06:02;8.20;76.90
76211;DHT22;65003;49.518;11.280;2023-05-18T02:08:29;8.10;77.00
76211;DHT22;65003;49.518;11.280;2023-05-18T02:10:56;8.10;77.20
76211;DHT22;65003;49.518;11.280;2023-05-18T02:13:22;8.00;77.30
76211;DHT22;65003;49.518;11.280;2023-05-18T02:15:49;7.90;77.90
76211;DHT22;65003;49.518;11.280;2023-05-18T02:18:16;7.90;78.30
76211;DHT22;65003;49.518;11.280;2023-05-18T02:20:42;7.80;78.90
76211;DHT22;65003;49.518;11.280;2023-05-18T02:23:09;7.70;78.50
76211;DHT22;65003;49.518;11.280;2023-05-18T02:25:35;7.60;79.10
76211;DHT22;65003;49.518;11.280;2023-05-18T02:28:02;7.30;79.90
76211;DHT22;65003;49.518;11.280;2023-05-18T02:30:28;7.20;81.20
76211;DHT22;65003;49.518;11.280;2023-05-18T02:32:55;7.20;81.20
76211;DHT22;65003;49.518;11.280;2023-05-18T02:35:22;7.10;81.00
76211;DHT22;65003;49.518;11.280;2023-05-18T02:37:48;7.00;81.60
76211;DHT22;65003;49.518;11.280;2023-05-18T02:40:15;7.20;81.10
76211;DHT22;65003;49.518;11.280;2023-05-18T02:42:42;7.20;80.60
76211;DHT22;65003;49.518;11.280;2023-05-18T02:45:08;7.20;80.90
76211;DHT22;65003;49.518;11.280;2023-05-18T02:47:35;7.10;80.80
76211;DHT22;65003;49.518;11.280;2023-05-18T02:50:02;7.10;81.30
76211;DHT22;65003;49.518;11.280;2023-05-18T02:52:28;7.20;80.60
76211;DHT22;65003;49.518;11.280;2023-05-18T02:54:55;7.20;80.70
76211;DHT22;65003;49.518;11.280;2023-05-18T02:57:22;7.20;80.70
76211;DHT22;65003;49.518;11.280;2023-05-18T02:59:48;7.20;80.40
76211;DHT22;65003;49.518;11.280;2023-05-18T03:02:16;7.30;80.40
76211;DHT22;65003;49.518;11.280;2023-05-18T03:04:42;7.30;80.40
76211;DHT22;65003;49.518;11.280;2023-05-18T03:07:09;7.30;79.90
76211;DHT22;65003;49.518;11.280;2023-05-18T03:09:36;7.10;80.70
76211;DHT22;65003;49.518;11.280;2023-05-18T03:12:02;7.00;81.10
76211;DHT22;65003;49.518;11.280;2023-05-18T03:14:29;7.00;81.40
76211;DHT22;65003;49.518;11.280;2023-05-18T03:16:56;7.10;80.90
76211;DHT22;65003;49.518;11.280;2023-05-18T03:19:22;7.20;80.40
76211;DHT22;65003;49.518;11.280;2023-05-18T03:21:49;7.30;80.00
76211;DHT22;65003;49.518;11.280;2023-05-18T03:24:15;7.20;80.00
76211;DHT22;65003;49.518;11.280;2023-05-18T03:26:42;7.20;80.40
76211;DHT22;65003;49.518;11.280;2023-05-18T03:29:09;7.10;80.30
76211;DHT22;65003;49.518;11.280;2023-05-18T03:31:35;7.10;80.50
76211;DHT22;65003;49.518;11.280;2023-05-18T03:34:02;7.20;80.40
76211;DHT22;65003;49.518;11.280;2023-05-18T03:36:28;7.20;80.00
76211;DHT22;65003;49.518;11.280;2023-05-18T03:38:55;7.20;80.00
76211;DHT22;65003;49.518;11.280;2023-05-18T03:41:22;7.10;80.70
76211;DHT22;65003;49.518;11.280;2023-05-18T03:43:48;7.00;81.00
76211;DHT22;65003;49.518;11.280;2023-05-18T03:46:15;7.00;81.10
76211;DHT22;65003;49.518;11.280;2023-05-18T03:48:41;6.90;81.60
76211;DHT22;65003;49.518;11.280;2023-05-18T03:51:08;7.10;81.20
76211;DHT22;65003;49.518;11.280;2023-05-18T03:53:35;7.00;81.20
76211;DHT22;65003;49.518;11.280;2023-05-18T03:56:02;7.10;81.20
76211;DHT22;65003;49.518;11.280;2023-05-18T03:58:28;7.10;81.30
76211;DHT22;65003;49.518;11.280;2023-05-18T04:00:55;7.20;81.20
76211;DHT22;65003;49.518;11.280;2023-05-18T04:03:21;7.20;80.70
76211;DHT22;65003;49.518;11.280;2023-05-18T04:05:48;7.00;81.50
76211;DHT22;65003;49.518;11.280;2023-05-18T04:08:16;6.90;82.20
76211;DHT22;65003;49.518;11.280;2023-05-18T04:10:43;6.90;82.70
76211;DHT22;65003;49.518;11.280;2023-05-18T04:13:09;7.00;82.20
76211;DHT22;65003;49.518;11.280;2023-05-18T04:15:36;7.20;81.80
76211;DHT22;65003;49.518;11.280;2023-05-18T04:18:03;7.30;81.80
76211;DHT22;65003;49.518;11.280;2023-05-18T04:20:29;7.50;81.20
76211;DHT22;65003;49.518;11.280;2023-05-18T04:22:55;7.50;80.60
76211;DHT22;65003;49.518;11.280;2023-05-18T04:25:23;7.70;80.50
76211;DHT22;65003;49.518;11.280;2023-05-18T04:27:53;6.90;79.60
76211;DHT22;65003;49.518;11.280;2023-05-18T04:30:20;7.40;81.40
76211;DHT22;65003;49.518;11.280;2023-05-18T04:32:48;7.20;82.00
76211;DHT22;65003;49.518;11.280;2023-05-18T04:35:15;7.20;82.50
76211;DHT22;65003;49.518;11.280;2023-05-18T04:37:41;7.20;82.80
76211;DHT22;65003;49.518;11.280;2023-05-18T04:40:09;7.30;82.50
76211;DHT22;65003;49.518;11.280;2023-05-18T04:42:36;7.40;82.30
76211;DHT22;65003;49.518;11.280;2023-05-18T04:45:03;7.70;82.00
76211;DHT22;65003;49.518;11.280;2023-05-18T04:47:30;7.60;81.40
76211;DHT22;65003;49.518;11.280;2023-05-18T04:49:56;7.60;81.50
76211;DHT22;65003;49.518;11.280;2023-05-18T04:52:23;7.50;82.00
76211;DHT22;65003;49.518;11.280;2023-05-18T04:54:49;7.40;83.20
76211;DHT22;65003;49.518;11.280;2023-05-18T04:57:16;7.50;82.80
76211;DHT22;65003;49.518;11.280;2023-05-18T04:59:43;7.60;82.30
76211;DHT22;65003;49.518;11.280;2023-05-18T05:02:09;7.80;81.90
76211;DHT22;65003;49.518;11.280;2023-05-18T05:04:36;7.90;81.80
76211;DHT22;65003;49.518;11.280;2023-05-18T05:07:02;7.90;81.30
76211;DHT22;65003;49.518;11.280;2023-05-18T05:09:29;8.10;81.20
76211;DHT22;65003;49.518;11.280;2023-05-18T05:11:55;8.30;80.80
76211;DHT22;65003;49.518;11.280;2023-05-18T05:14:22;8.70;79.10
76211;DHT22;65003;49.518;11.280;2023-05-18T05:16:49;8.80;77.70
76211;DHT22;65003;49.518;11.280;2023-05-18T05:19:15;8.80;77.70
76211;DHT22;65003;49.518;11.280;2023-05-18T05:21:42;8.90;77.50
76211;DHT22;65003;49.518;11.280;2023-05-18T05:24:08;9.00;76.70
76211;DHT22;65003;49.518;11.280;2023-05-18T05:26:35;9.20;76.60
76211;DHT22;65003;49.518;11.280;2023-05-18T05:29:02;9.50;75.80
76211;DHT22;65003;49.518;11.280;2023-05-18T05:31:28;9.80;75.00
76211;DHT22;65003;49.518;11.280;2023-05-18T05:33:55;10.20;72.90
76211;DHT22;65003;49.518;11.280;2023-05-18T05:36:21;10.40;72.00
76211;DHT22;65003;49.518;11.280;2023-05-18T05:38:48;10.60;71.70
76211;DHT22;65003;49.518;11.280;2023-05-18T05:41:16;10.80;70.80
76211;DHT22;65003;49.518;11.280;2023-05-18T05:43:42;11.00;70.30
76211;DHT22;65003;49.518;11.280;2023-05-18T05:46:09;11.40;68.10
76211;DHT22;65003;49.518;11.280;2023-05-18T05:48:35;11.80;66.30
76211;DHT22;65003;49.518;11.280;2023-05-18T05:51:02;12.30;63.50
76211;DHT22;65003;49.518;11.280;2023-05-18T05:53:29;12.30;64.10
76211;DHT22;65003;49.518;11.280;2023-05-18T05:55:58;12.50;62.10
76211;DHT22;65003;49.518;11.280;2023-05-18T05:58:25;13.00;61.30
76211;DHT22;65003;49.518;11.280;2023-05-18T06:00:51;13.40;59.60
76211;DHT22;65003;49.518;11.280;2023-05-18T06:03:18;13.50;59.60
76211;DHT22;65003;49.518;11.280;2023-05-18T06:05:44;13.50;59.10
76211;DHT22;65003;49.518;11.280;2023-05-18T06:08:11;13.80;59.00
76211;DHT22;65003;49.518;11.280;2023-05-18T06:10:38;14.40;56.80
76211;DHT22;65003;49.518;11.280;2023-05-18T06:13:04;14.80;55.70
76211;DHT22;65003;49.518;11.280;2023-05-18T06:15:31;15.20;54.30
76211;DHT22;65003;49.518;11.280;2023-05-18T06:17:58;15.60;53.30
76211;DHT22;65003;49.518;11.280;2023-05-18T06:20:24;16.20;51.20
76211;DHT22;65003;49.518;11.280;2023-05-18T06:22:51;16.80;49.90
76211;DHT22;65003;49.518;11.280;2023-05-18T06:25:17;17.40;47.70
76211;DHT22;65003;49.518;11.280;2023-05-18T06:27:44;17.80;46.70
76211;DHT22;65003;49.518;11.280;2023-05-18T06:30:11;18.70;45.30
76211;DHT22;65003;49.518;11.280;2023-05-18T06:32:37;19.60;42.70
76211;DHT22;65003;49.518;11.280;2023-05-18T06:35:04;20.60;41.10
76211;DHT22;65003;49.518;11.280;2023-05-18T06:37:31;22.30;36.40
76211;DHT22;65003;49.518;11.280;2023-05-18T06:39:58;23.80;34.80
76211;DHT22;65003;49.518;11.280;2023-05-18T06:42:24;25.50;32.20
76211;DHT22;65003;49.518;11.280;2023-05-18T06:44:52;26.70;29.00
76211;DHT22;65003;49.518;11.280;2023-05-18T06:47:19;27.60;28.40
76211;DHT22;65003;49.518;11.280;2023-05-18T06:49:46;28.60;26.90
76211;DHT22;65003;49.518;11.280;2023-05-18T06:52:13;29.70;24.90
76211;DHT22;65003;49.518;11.280;2023-05-18T06:54:39;30.50;24.50
76211;DHT22;65003;49.518;11.280;2023-05-18T06:57:06;30.50;30.20
76211;DHT22;65003;49.518;11.280;2023-05-18T06:59:32;29.90;24.60
76211;DHT22;65003;49.518;11.280;2023-05-18T07:02:00;30.30;23.80
76211;DHT22;65003;49.518;11.280;2023-05-18T07:04:27;30.40;23.70
76211;DHT22;65003;49.518;11.280;2023-05-18T07:06:54;30.60;23.20
76211;DHT22;65003;49.518;11.280;2023-05-18T07:09:21;30.60;23.50
76211;DHT22;65003;49.518;11.280;2023-05-18T07:11:47;31.70;23.00
76211;DHT22;65003;49.518;11.280;2023-05-18T07:14:14;33.00;22.00
76211;DHT22;65003;49.518;11.280;2023-05-18T07:16:40;34.00;21.10
76211;DHT22;65003;49.518;11.280;2023-05-18T07:19:07;34.90;20.30
76211;DHT22;65003;49.518;11.280;2023-05-18T07:21:33;34.20;20.40
76211;DHT22;65003;49.518;11.280;2023-05-18T07:24:00;33.10;20.50
76211;DHT22;65003;49.518;11.280;2023-05-18T07:26:27;32.60;21.30
76211;DHT22;65003;49.518;11.280;2023-05-18T07:28:54;32.40;21.00
76211;DHT22;65003;49.518;11.280;2023-05-18T07:31:21;31.50;21.20
76211;DHT22;65003;49.518;11.280;2023-05-18T07:33:48;31.40;21.90
76211;DHT22;65003;49.518;11.280;2023-05-18T07:36:14;31.90;21.20
76211;DHT22;65003;49.518;11.280;2023-05-18T07:38:41;31.30;22.00
76211;DHT22;65003;49.518;11.280;2023-05-18T07:41:07;32.00;21.40
76211;DHT22;65003;49.518;11.280;2023-05-18T07:43:34;32.30;21.20
76211;DHT22;65003;49.518;11.280;2023-05-18T07:46:01;32.80;20.90
76211;DHT22;65003;49.518;11.280;2023-05-18T07:48:27;34.40;20.40
76211;DHT22;65003;49.518;11.280;2023-05-18T07:50:54;36.30;19.50
76211;DHT22;65003;49.518;11.280;2023-05-18T07:53:20;36.00;18.70
76211;DHT22;65003;49.518;11.280;2023-05-18T07:55:48;34.90;19.60
76211;DHT22;65003;49.518;11.280;2023-05-18T07:58:15;32.80;20.90
76211;DHT22;65003;49.518;11.280;2023-05-18T08:00:41;31.90;22.00
76211;DHT22;65003;49.518;11.280;2023-05-18T08:03:08;31.30;22.20
76211;DHT22;65003;49.518;11.280;2023-05-18T08:05:34;31.30;22.20
76211;DHT22;65003;49.518;11.280;2023-05-18T08:08:01;31.10;22.00
76211;DHT22;65003;49.518;11.280;2023-05-18T08:10:27;31.80;22.10
76211;DHT22;65003;49.518;11.280;2023-05-18T08:12:54;32.70;21.10
76211;DHT22;65003;49.518;11.280;2023-05-18T08:15:22;32.00;21.20
76211;DHT22;65003;49.518;11.280;2023-05-18T08:17:48;31.40;22.00
76211;DHT22;65003;49.518;11.280;2023-05-18T08:20:16;31.60;21.90
76211;DHT22;65003;49.518;11.280;2023-05-18T08:22:43;32.00;22.00
76211;DHT22;65003;49.518;11.280;2023-05-18T08:25:11;32.40;21.00
76211;DHT22;65003;49.518;11.280;2023-05-18T08:27:37;31.70;21.20
76211;DHT22;65003;49.518;11.280;2023-05-18T08:30:04;31.10;21.80
76211;DHT22;65003;49.518;11.280;2023-05-18T08:32:31;31.20;21.70
76211;DHT22;65003;49.518;11.280;2023-05-18T08:34:58;30.80;22.80
76211;DHT22;65003;49.518;11.280;2023-05-18T08:37:25;31.20;22.20
76211;DHT22;65003;49.518;11.280;2023-05-18T08:39:52;32.10;21.20
76211;DHT22;65003;49.518;11.280;2023-05-18T08:42:21;30.90;22.20
76211;DHT22;65003;49.518;11.280;2023-05-18T08:44:52;31.20;21.50
76211;DHT22;65003;49.518;11.280;2023-05-18T08:47:17;31.70;21.40
76211;DHT22;65003;49.518;11.280;2023-05-18T08:49:44;32.50;20.70
76211;DHT22;65003;49.518;11.280;2023-05-18T08:52:10;34.20;20.40
76211;DHT22;65003;49.518;11.280;2023-05-18T08:54:37;33.00;20.10
76211;DHT22;65003;49.518;11.280;2023-05-18T08:57:06;31.80;20.90
76211;DHT22;65003;49.518;11.280;2023-05-18T08:59:30;31.30;21.30
76211;DHT22;65003;49.518;11.280;2023-05-18T09:01:57;31.10;22.40
76211;DHT22;65003;49.518;11.280;2023-05-18T09:04:24;29.90;22.50
76211;DHT22;65003;49.518;11.280;2023-05-18T09:06:50;28.40;24.00
76211;DHT22;65003;49.518;11.280;2023-05-18T09:09:17;27.60;25.10
76211;DHT22;65003;49.518;11.280;2023-05-18T09:11:43;27.10;25.10
76211;DHT22;65003;49.518;11.280;2023-05-18T09:14:10;26.20;26.40
76211;DHT22;65003;49.518;11.280;2023-05-18T09:16:37;25.40;27.20
76211;DHT22;65003;49.518;11.280;2023-05-18T09:19:03;26.50;26.90
76211;DHT22;65003;49.518;11.280;2023-05-18T09:21:30;26.70;25.70
76211;DHT22;65003;49.518;11.280;2023-05-18T09:23:59;26.30;26.30
76211;DHT22;65003;49.518;11.280;2023-05-18T09:26:23;25.30;26.40
76211;DHT22;65003;49.518;11.280;2023-05-18T09:28:51;24.00;28.30
76211;DHT22;65003;49.518;11.280;2023-05-18T09:31:18;23.40;29.80
76211;DHT22;65003;49.518;11.280;2023-05-18T09:33:44;22.70;29.70
76211;DHT22;65003;49.518;11.280;2023-05-18T09:36:10;21.60;31.80
76211;DHT22;65003;49.518;11.280;2023-05-18T09:38:38;20.70;32.90
76211;DHT22;65003;49.518;11.280;2023-05-18T09:41:08;20.30;33.80
76211;DHT22;65003;49.518;11.280;2023-05-18T09:43:34;20.70;32.70
76211;DHT22;65003;49.518;11.280;2023-05-18T09:46:04;21.60;31.50
76211;DHT22;65003;49.518;11.280;2023-05-18T09:48:27;22.70;30.30
76211;DHT22;65003;49.518;11.280;2023-05-18T09:50:54;23.20;29.50
76211;DHT22;65003;49.518;11.280;2023-05-18T09:53:20;23.30;30.00
76211;DHT22;65003;49.518;11.280;2023-05-18T09:55:48;23.00;29.80
76211;DHT22;65003;49.518;11.280;2023-05-18T09:58:13;22.80;30.00
76211;DHT22;65003;49.518;11.280;2023-05-18T10:00:41;22.40;30.30
76211;DHT22;65003;49.518;11.280;2023-05-18T10:03:15;21.90;31.20
76211;DHT22;65003;49.518;11.280;2023-05-18T10:05:33;21.50;31.20
76211;DHT22;65003;49.518;11.280;2023-05-18T10:08:00;20.80;31.50
76211;DHT22;65003;49.518;11.280;2023-05-18T10:10:27;20.60;32.10
76211;DHT22;65003;49.518;11.280;2023-05-18T10:12:54;21.00;32.00
76211;DHT22;65003;49.518;11.280;2023-05-18T10:15:20;21.60;30.50
76211;DHT22;65003;49.518;11.280;2023-05-18T10:17:47;22.20;29.70
76211;DHT22;65003;49.518;11.280;2023-05-18T10:20:14;22.40;30.20
76211;DHT22;65003;49.518;11.280;2023-05-18T10:22:40;22.50;29.90
76211;DHT22;65003;49.518;11.280;2023-05-18T10:25:07;22.50;30.40
76211;DHT22;65003;49.518;11.280;2023-05-18T10:27:34;22.60;29.70
76211;DHT22;65003;49.518;11.280;2023-05-18T10:30:01;22.80;31.20
76211;DHT22;65003;49.518;11.280;2023-05-18T10:32:29;23.30;29.20
76211;DHT22;65003;49.518;11.280;2023-05-18T10:34:55;23.30;29.00
76211;DHT22;65003;49.518;11.280;2023-05-18T10:37:22;23.00;29.30
76211;DHT22;65003;49.518;11.280;2023-05-18T10:39:50;22.60;29.00
76211;DHT22;65003;49.518;11.280;2023-05-18T10:42:16;22.90;29.80
76211;DHT22;65003;49.518;11.280;2023-05-18T10:44:44;23.20;28.60
76211;DHT22;65003;49.518;11.280;2023-05-18T10:47:10;23.40;28.50
76211;DHT22;65003;49.518;11.280;2023-05-18T10:49:37;22.80;28.90
76211;DHT22;65003;49.518;11.280;2023-05-18T10:52:04;22.80;28.80
76211;DHT22;65003;49.518;11.280;2023-05-18T10:54:31;22.40;29.30
76211;DHT22;65003;49.518;11.280;2023-05-18T10:56:57;22.20;29.40
76211;DHT22;65003;49.518;11.280;2023-05-18T10:59:23;21.90;30.00
76211;DHT22;65003;49.518;11.280;2023-05-18T11:01:51;21.90;30.60
76211;DHT22;65003;49.518;11.280;2023-05-18T11:04:23;21.50;30.10
76211;DHT22;65003;49.518;11.280;2023-05-18T11:06:53;21.20;31.20
76211;DHT22;65003;49.518;11.280;2023-05-18T11:09:21;21.20;31.40
76211;DHT22;65003;49.518;11.280;2023-05-18T11:11:50;21.40;31.50
76211;DHT22;65003;49.518;11.280;2023-05-18T11:14:22;21.30;31.50
76211;DHT22;65003;49.518;11.280;2023-05-18T11:16:43;21.00;31.90
76211;DHT22;65003;49.518;11.280;2023-05-18T11:19:09;21.00;33.50
76211;DHT22;65003;49.518;11.280;2023-05-18T11:21:51;20.90;32.20
76211;DHT22;65003;49.518;11.280;2023-05-18T11:24:25;21.10;31.60
76211;DHT22;65003;49.518;11.280;2023-05-18T11:26:52;21.00;31.50
76211;DHT22;65003;49.518;11.280;2023-05-18T11:29:20;20.80;31.50
76211;DHT22;65003;49.518;11.280;2023-05-18T11:31:46;20.80;31.40
76211;DHT22;65003;49.518;11.280;2023-05-18T11:36:51;20.60;31.60
76211;DHT22;65003;49.518;11.280;2023-05-18T11:39:23;20.70;31.50
76211;DHT22;65003;49.518;11.280;2023-05-18T11:41:59;20.80;31.70
76211;DHT22;65003;49.518;11.280;2023-05-18T11:44:26;21.00;31.50
76211;DHT22;65003;49.518;11.280;2023-05-18T11:46:54;20.60;31.80
76211;DHT22;65003;49.518;11.280;2023-05-18T11:49:20;20.30;32.70
76211;DHT22;65003;49.518;11.280;2023-05-18T11:51:56;20.40;33.30
76211;DHT22;65003;49.518;11.280;2023-05-18T11:54:23;20.40;31.70
76211;DHT22;65003;49.518;11.280;2023-05-18T11:56:49;20.10;31.80
76211;DHT22;65003;49.518;11.280;2023-05-18T11:59:16;20.10;33.00
76211;DHT22;65003;49.518;11.280;2023-05-18T12:01:42;20.20;33.80
76211;DHT22;65003;49.518;11.280;2023-05-18T12:04:09;20.50;32.80
76211;DHT22;65003;49.518;11.280;2023-05-18T12:06:36;20.60;33.80
76211;DHT22;65003;49.518;11.280;2023-05-18T12:09:02;21.00;32.80
76211;DHT22;65003;49.518;11.280;2023-05-18T12:11:29;21.20;31.20
76211;DHT22;65003;49.518;11.280;2023-05-18T12:13:55;21.10;31.50
76211;DHT22;65003;49.518;11.280;2023-05-18T12:16:22;20.60;32.10
76211;DHT22;65003;49.518;11.280;2023-05-18T12:18:49;20.10;31.30
76211;DHT22;65003;49.518;11.280;2023-05-18T12:21:20;20.00;32.20
76211;DHT22;65003;49.518;11.280;2023-05-18T12:23:46;20.10;32.70
76211;DHT22;65003;49.518;11.280;2023-05-18T12:26:13;19.90;31.80
76211;DHT22;65003;49.518;11.280;2023-05-18T12:28:39;19.70;32.60
76211;DHT22;65003;49.518;11.280;2023-05-18T12:31:06;19.50;31.30
76211;DHT22;65003;49.518;11.280;2023-05-18T12:33:33;19.40;31.70
76211;DHT22;65003;49.518;11.280;2023-05-18T12:35:59;19.20;31.60
76211;DHT22;65003;49.518;11.280;2023-05-18T12:38:26;19.00;32.40
76211;DHT22;65003;49.518;11.280;2023-05-18T12:40:52;18.70;32.00
76211;DHT22;65003;49.518;11.280;2023-05-18T12:43:19;18.50;33.50
76211;DHT22;65003;49.518;11.280;2023-05-18T12:45:46;18.50;34.50
76211;DHT22;65003;49.518;11.280;2023-05-18T12:48:12;18.40;32.90
76211;DHT22;65003;49.518;11.280;2023-05-18T12:50:46;18.40;34.20
76211;DHT22;65003;49.518;11.280;2023-05-18T12:53:12;18.30;35.20
76211;DHT22;65003;49.518;11.280;2023-05-18T12:55:39;18.20;33.70
76211;DHT22;65003;49.518;11.280;2023-05-18T12:58:11;18.40;34.10
76211;DHT22;65003;49.518;11.280;2023-05-18T13:00:33;18.20;33.80
76211;DHT22;65003;49.518;11.280;2023-05-18T13:03:05;18.00;34.50
76211;DHT22;65003;49.518;11.280;2023-05-18T13:05:32;18.00;35.50
76211;DHT22;65003;49.518;11.280;2023-05-18T13:07:58;18.10;35.50
76211;DHT22;65003;49.518;11.280;2023-05-18T13:10:27;18.10;35.30
76211;DHT22;65003;49.518;11.280;2023-05-18T13:12:51;18.10;35.10
76211;DHT22;65003;49.518;11.280;2023-05-18T13:15:19;18.20;35.30
76211;DHT22;65003;49.518;11.280;2023-05-18T13:17:54;18.30;34.40
76211;DHT22;65003;49.518;11.280;2023-05-18T13:20:20;18.30;35.20
76211;DHT22;65003;49.518;11.280;2023-05-18T13:22:48;18.50;37.10
76211;DHT22;65003;49.518;11.280;2023-05-18T13:25:14;18.60;36.70
76211;DHT22;65003;49.518;11.280;2023-05-18T13:27:42;18.60;35.60
76211;DHT22;65003;49.518;11.280;2023-05-18T13:30:08;18.60;35.30
76211;DHT22;65003;49.518;11.280;2023-05-18T13:32:35;18.40;35.10
76211;DHT22;65003;49.518;11.280;2023-05-18T13:35:01;18.20;35.50
76211;DHT22;65003;49.518;11.280;2023-05-18T13:37:28;18.10;36.20
76211;DHT22;65003;49.518;11.280;2023-05-18T13:39:55;18.10;36.60
76211;DHT22;65003;49.518;11.280;2023-05-18T13:42:21;18.00;34.80
76211;DHT22;65003;49.518;11.280;2023-05-18T13:44:48;18.00;34.50
76211;DHT22;65003;49.518;11.280;2023-05-18T13:47:14;18.00;35.20
76211;DHT22;65003;49.518;11.280;2023-05-18T13:49:41;18.20;34.80
76211;DHT22;65003;49.518;11.280;2023-05-18T13:52:08;18.30;33.60
76211;DHT22;65003;49.518;11.280;2023-05-18T13:54:34;18.20;33.50
76211;DHT22;65003;49.518;11.280;2023-05-18T13:57:01;18.10;34.30
76211;DHT22;65003;49.518;11.280;2023-05-18T13:59:27;18.10;33.50
76211;DHT22;65003;49.518;11.280;2023-05-18T14:01:54;18.20;34.10
76211;DHT22;65003;49.518;11.280;2023-05-18T14:04:20;18.20;33.70
76211;DHT22;65003;49.518;11.280;2023-05-18T14:06:47;18.20;34.10
76211;DHT22;65003;49.518;11.280;2023-05-18T14:09:14;18.20;34.40
76211;DHT22;65003;49.518;11.280;2023-05-18T14:11:40;18.10;34.60
76211;DHT22;65003;49.518;11.280;2023-05-18T14:14:07;18.10;36.40
76211;DHT22;65003;49.518;11.280;2023-05-18T14:16:33;18.00;36.40
76211;DHT22;65003;49.518;11.280;2023-05-18T14:19:00;17.90;36.60
76211;DHT22;65003;49.518;11.280;2023-05-18T14:21:27;18.00;35.40
76211;DHT22;65003;49.518;11.280;2023-05-18T14:23:53;18.00;36.40
76211;DHT22;65003;49.518;11.280;2023-05-18T14:26:20;18.20;36.20
76211;DHT22;65003;49.518;11.280;2023-05-18T14:28:46;18.30;37.00
76211;DHT22;65003;49.518;11.280;2023-05-18T14:31:13;18.40;36.40
76211;DHT22;65003;49.518;11.280;2023-05-18T14:33:40;18.50;35.70
76211;DHT22;65003;49.518;11.280;2023-05-18T14:36:06;18.50;35.10
76211;DHT22;65003;49.518;11.280;2023-05-18T14:38:33;18.50;36.20
76211;DHT22;65003;49.518;11.280;2023-05-18T14:40:59;18.50;36.10
76211;DHT22;65003;49.518;11.280;2023-05-18T14:43:26;18.40;35.70
76211;DHT22;65003;49.518;11.280;2023-05-18T14:45:53;18.30;35.00
76211;DHT22;65003;49.518;11.280;2023-05-18T14:48:19;18.40;35.20
76211;DHT22;65003;49.518;11.280;2023-05-18T14:50:46;18.20;35.40
76211;DHT22;65003;49.518;11.280;2023-05-18T14:53:13;18.10;35.50
76211;DHT22;65003;49.518;11.280;2023-05-18T14:55:39;17.90;36.70
76211;DHT22;65003;49.518;11.280;2023-05-18T14:58:06;17.80;37.60
76211;DHT22;65003;49.518;11.280;2023-05-18T15:00:32;17.60;37.70
76211;DHT22;65003;49.518;11.280;2023-05-18T15:02:59;17.50;37.80
76211;DHT22;65003;49.518;11.280;2023-05-18T15:05:25;17.40;37.10
76211;DHT22;65003;49.518;11.280;2023-05-18T15:07:52;17.40;38.10
76211;DHT22;65003;49.518;11.280;2023-05-18T15:10:19;17.40;38.10
76211;DHT22;65003;49.518;11.280;2023-05-18T15:12:45;17.50;37.70
76211;DHT22;65003;49.518;11.280;2023-05-18T15:15:12;17.50;37.20
76211;DHT22;65003;49.518;11.280;2023-05-18T15:17:38;17.50;37.00
76211;DHT22;65003;49.518;11.280;2023-05-18T15:20:06;17.40;34.70
76211;DHT22;65003;49.518;11.280;2023-05-18T15:22:33;17.30;34.70
76211;DHT22;65003;49.518;11.280;2023-05-18T15:25:00;17.20;34.60